• Join FlightAware (Why Join?)
  • Login
  • US Flag 
08:06PM EDT


 

Airport Tracker/Info


-or-


 

Live Flight TrackerFlight Track Log ✈ AFL150 ✈ 15-Oct-2013 ✈ UUEE / SVO - MUHA / HAV

Flight Track Log - Related Links

Times and Time Zones

All times are in EDT time to prevent confusion due to time zone crossing. See the AFL150 flight status page for this flight to view local times or setup timezone preferences in your user account.

Time Position Orientation Groundspeed Altitude Reporting Facility
EDT Latitude Longitude Course Direction KTS MPH feet Rate Location/Type
06:37AM 55.9660 37.3770 254° West 167 192 1,400  Level FlightAware
06:37AM 55.9620 37.3570 250° West 165 190 2,100 2,400 Climbing FlightAware
06:37AM 55.9590 37.3320 258° West 161 185 2,800 1,860 Climbing FlightAware
06:38AM 55.9540 37.2980 255° West 167 192 3,500 1,020 Climbing FlightAware
06:38AM 55.9500 37.2690 256° West 192 221 3,600 720 Climbing FlightAware
06:38AM 55.9450 37.2360 255° West 212 244 4,000 1,020 Climbing FlightAware
06:38AM 55.9430 37.2100 262° West 232 267 4,200 1,500 Climbing FlightAware
06:39AM 55.9470 37.1690 280° West 246 283 4,900 2,400 Climbing FlightAware
06:39AM 55.9500 37.1500 286° West 243 280 5,400 2,220 Climbing FlightAware
06:39AM 55.9570 37.0910 282° West 249 287 6,400 2,100 Climbing FlightAware
06:40AM 55.9610 37.0500 280° West 257 296 7,200 2,100 Climbing FlightAware
06:40AM 55.9650 37.0060 279° West 267 307 7,800 1,920 Climbing FlightAware
06:40AM 55.9680 36.9730 279° West 273 314 8,300 2,040 Climbing FlightAware
06:41AM 55.9720 36.9290 279° West 283 326 9,000 1,800 Climbing FlightAware
06:41AM 55.9760 36.8830 279° West 295 339 9,500 1,680 Climbing FlightAware
06:42AM 55.9830 36.8060 279° West 313 360 10,400 1,680 Climbing FlightAware
06:42AM 55.9790 36.7270 265° West 328 377 11,200 1,620 Climbing FlightAware
06:43AM 55.9720 36.6300 263° West 348 400 12,200 1,920 Climbing FlightAware
06:43AM 55.9630 36.5150 262° West 357 411 13,600 2,040 Climbing FlightAware
06:44AM 55.9560 36.4110 263° West 365 420 14,800 2,160 Climbing FlightAware
06:45AM 55.9470 36.2920 262° West 367 422 16,300 2,100 Climbing FlightAware
06:45AM 55.9400 36.2010 262° West 372 428 17,300 2,580 Climbing FlightAware
06:46AM 55.9320 36.0960 262° West 356 410 19,100 2,880 Climbing FlightAware
06:46AM 55.9250 35.9980 263° West 344 396 20,700 2,400 Climbing FlightAware
06:47AM 55.9170 35.9000 262° West 339 390 22,000 1,860 Climbing FlightAware
06:47AM 55.9100 35.8030 263° West 343 395 22,900 1,440 Climbing FlightAware
06:48AM 55.9010 35.6900 262° West 349 402 23,800 1,320 Climbing FlightAware
06:49AM 55.8940 35.6050 262° West 353 406 24,500 1,260 Climbing FlightAware
06:49AM 55.8860 35.5040 262° West 359 413 25,200 1,200 Climbing FlightAware
06:50AM 55.8780 35.4000 262° West 363 418 25,900 1,200 Climbing FlightAware
06:50AM 55.8700 35.2960 262° West 365 420 26,600 1,200 Climbing FlightAware
06:51AM 55.8610 35.1930 261° West 369 425 27,300 960 Climbing FlightAware
06:52AM 55.8510 35.0710 262° West 380 437 27,800 840 Climbing FlightAware
06:52AM 55.8440 34.9760 263° West 384 442 28,300 720 Climbing FlightAware
06:52AM 55.8480 34.9150 277° West 389 448 28,500 360 Climbing FlightAware
06:53AM 55.8670 34.7770 284° West 405 466 28,700 360 Climbing FlightAware
06:54AM 55.8810 34.6620 282° West 418 481 29,000 420 Climbing FlightAware
06:54AM 55.8950 34.5560 283° West 429 494 29,200 300 Climbing FlightAware
06:55AM 55.9110 34.4290 283° West 441 507 29,400 300 Climbing FlightAware
06:55AM 55.9260 34.3110 283° West 450 518 29,600 480 Climbing FlightAware
06:56AM 55.9450 34.1560 282° West 460 529 30,000 720 Climbing FlightAware
06:57AM 55.9590 34.0410 282° West 460 529 30,500 960 Climbing FlightAware
06:57AM 55.9750 33.9080 282° West 461 531 31,100 960 Climbing FlightAware
06:58AM 55.9900 33.7870 283° West 462 532 31,600 960 Climbing FlightAware
06:58AM 56.0060 33.6520 282° West 462 532 32,300 960 Climbing FlightAware
06:59AM 56.0210 33.5300 282° West 459 528 32,800 900 Climbing FlightAware
06:59AM 56.0340 33.4120 281° West 457 526 33,300 960 Climbing FlightAware
07:00AM 56.0520 33.2560 282° West 454 522 34,000 540 Climbing FlightAware
07:01AM 56.0680 33.1240 282° West 457 526 34,000  Level FlightAware
07:01AM 56.0820 33.0010 282° West 457 526 34,000  Level FlightAware
07:02AM 56.0970 32.8650 281° West 458 527 34,000  Level FlightAware
07:02AM 56.1110 32.7370 281° West 456 525 34,000  Level FlightAware
07:03AM 56.1260 32.6060 282° West 456 525 34,000  Level FlightAware
07:04AM 56.1400 32.4780 281° West 455 524 34,000  Level FlightAware
07:04AM 56.1540 32.3500 281° West 456 525 34,000  Level FlightAware
07:05AM 56.1710 32.2170 283° West 457 526 34,000  Level FlightAware
07:05AM 56.1950 32.0960 290° West 458 527 34,000  Level FlightAware
07:06AM 56.2200 32.0050 296° West 460 529 34,000  Level FlightAware
07:07AM 56.2700 31.8620 302° West 461 531 34,000  Level FlightAware
07:07AM 56.3110 31.7540 304° West 463 533 34,000  Level FlightAware
07:08AM 56.3510 31.6440 303° West 464 534 34,000  Level FlightAware
07:08AM 56.3960 31.5150 302° West 464 534 34,000  Level FlightAware
07:09AM 56.4310 31.4150 302° West 464 534 34,000  Level FlightAware
07:10AM 56.4660 31.3140 302° West 464 534 34,000  Level FlightAware
07:10AM 56.5270 31.1490 304° West 465 535 34,000  Level FlightAware
07:11AM 56.5730 31.0290 305° West 466 536 34,000  Level FlightAware
07:11AM 56.6280 30.9110 310° West 468 539 34,000  Level FlightAware
07:12AM 56.6790 30.8050 311° West 468 539 34,000  Level FlightAware
07:13AM 56.7310 30.6850 308° West 466 536 34,000  Level FlightAware
07:13AM 56.7730 30.5690 303° West 467 537 34,000  Level FlightAware
07:14AM 56.8310 30.4150 305° West 468 539 34,000  Level FlightAware
07:15AM 56.8710 30.3090 305° West 468 539 34,000  Level FlightAware
07:15AM 56.9150 30.1880 304° West 468 539 34,000  Level FlightAware
07:16AM 56.9540 30.0830 304° West 468 539 34,000  Level FlightAware
07:16AM 56.9980 29.9610 304° West 470 541 34,000  Level FlightAware
07:17AM 57.0400 29.8450 304° West 470 541 34,000  Level FlightAware
07:18AM 57.0800 29.7360 304° West 470 541 34,000  Level FlightAware
07:18AM 57.1300 29.5950 303° West 471 542 34,000  Level FlightAware
07:19AM 57.1780 29.4610 303° West 470 541 34,000  Level FlightAware
07:19AM 57.2150 29.3570 303° West 470 541 34,000  Level FlightAware
07:20AM 57.2540 29.2450 303° West 469 540 34,000  Level FlightAware
07:21AM 57.2970 29.1230 303° West 470 541 34,000  Level FlightAware
07:21AM 57.3440 28.9910 303° West 471 542 34,000  Level FlightAware
07:22AM 57.3790 28.8880 302° West 471 542 34,000  Level FlightAware
07:22AM 57.4190 28.7740 303° West 472 543 34,000  Level FlightAware
07:23AM 57.4650 28.6420 303° West 472 543 34,000  Level FlightAware
07:24AM 57.5070 28.5170 302° West 472 543 34,000  Level FlightAware
07:24AM 57.5540 28.3810 303° West 470 541 34,000  Level FlightAware
07:25AM 57.6010 28.2410 302° West 468 539 34,000  Level FlightAware
07:26AM 57.6390 28.1300 303° West 468 539 34,000  Level FlightAware
07:26AM 57.6800 28.0080 302° West 467 537 34,000  Level FlightAware
07:27AM 57.7270 27.8670 302° West 467 537 34,000  Level FlightAware
07:27AM 57.7730 27.7300 302° West 467 537 34,000  Level FlightAware
07:28AM 57.8070 27.6280 302° West 468 539 34,000  Level FlightAware
07:29AM 57.8640 27.4870 307° West 471 542 34,000  Level FlightAware
07:29AM 57.9270 27.3890 320° Northwest 474 545 34,000  Level FlightAware
07:30AM 57.9900 27.2850 319° Northwest 473 544 34,000  Level FlightAware
07:31AM 58.0600 27.1650 318° Northwest 473 544 34,000  Level FlightAware
07:31AM 58.1230 27.0560 318° Northwest 472 543 34,000  Level FlightAware
07:32AM 58.1810 26.9530 317° Northwest 473 544 34,000  Level FlightAware
07:33AM 58.2330 26.8620 317° Northwest 471 542 34,000  Level FlightAware
07:33AM 58.2940 26.7550 317° Northwest 471 542 34,000  Level FlightAware
07:34AM 58.3430 26.6690 317° Northwest 471 542 34,000  Level FlightAware
07:34AM 58.4070 26.5550 317° Northwest 470 541 34,000  Level FlightAware
07:35AM 58.4670 26.4480 317° Northwest 471 542 34,000  Level FlightAware
07:35AM 58.5170 26.3570 316° Northwest 470 541 34,000  Level FlightAware
07:36AM 58.5770 26.2500 317° Northwest 470 541 34,000  Level FlightAware
07:37AM 58.6260 26.1600 316° Northwest 469 540 34,000  Level FlightAware
07:37AM 58.6830 26.0560 317° Northwest 469 540 34,000  Level FlightAware
07:38AM 58.7450 25.9430 317° Northwest 470 541 34,000  Level FlightAware
07:38AM 58.7940 25.8530 316° Northwest 470 541 34,000  Level FlightAware
07:39AM 58.8480 25.7530 316° Northwest 470 541 34,000  Level FlightAware
07:40AM 58.9110 25.6570 322° Northwest 472 543 34,000  Level FlightAware
07:40AM 58.9750 25.5610 322° Northwest 470 541 34,000  Level FlightAware
07:41AM 59.0250 25.4820 321° Northwest 469 540 34,000  Level FlightAware
07:41AM 59.0850 25.3860 321° Northwest 468 539 34,000  Level FlightAware
07:42AM 59.1420 25.2950 321° Northwest 467 537 34,000  Level FlightAware
07:42AM 59.2050 25.1940 321° Northwest 466 536 34,000  Level FlightAware
07:43AM 59.2560 25.1120 321° Northwest 464 534 34,000  Level FlightAware
07:44AM 59.3170 25.0140 321° Northwest 464 534 34,000  Level FlightAware
07:44AM 59.3760 24.9180 320° Northwest 465 535 34,000  Level FlightAware
07:45AM 59.4350 24.8210 320° Northwest 465 535 34,000  Level FlightAware
07:45AM 59.4950 24.7240 321° Northwest 465 535 34,000  Level FlightAware
07:46AM 59.5480 24.6370 320° Northwest 465 535 34,000  Level FlightAware
07:47AM 59.6070 24.5390 320° Northwest 464 534 34,000  Level FlightAware
07:47AM 59.6650 24.4430 320° Northwest 464 534 34,000  Level FlightAware
07:48AM 59.7180 24.3550 320° Northwest 462 532 34,000  Level FlightAware
07:48AM 59.7770 24.2570 320° Northwest 462 532 34,000  Level FlightAware
07:49AM 59.8350 24.1580 319° Northwest 461 531 34,000  Level FlightAware
07:50AM 59.8960 24.0550 320° Northwest 461 531 34,000  Level FlightAware
07:50AM 59.9520 23.9610 320° Northwest 461 531 34,000  Level FlightAware
07:51AM 60.0110 23.8610 320° Northwest 460 529 34,000  Level FlightAware
07:51AM 60.0620 23.7730 319° Northwest 460 529 34,000  Level FlightAware
07:52AM 60.1200 23.6720 319° Northwest 459 528 34,000  Level FlightAware
07:52AM 60.1730 23.5820 320° Northwest 458 527 34,000  Level FlightAware
07:53AM 60.2310 23.4810 319° Northwest 457 526 34,000  Level FlightAware
07:54AM 60.2880 23.3820 319° Northwest 458 527 34,000 240 Level FlightAware
07:54AM 60.3380 23.2930 319° Northwest 457 526 34,300 480 Climbing FlightAware
07:55AM 60.3970 23.1890 319° Northwest 459 528 34,600 480 Climbing FlightAware
07:55AM 60.4530 23.0900 319° Northwest 457 526 34,900 480 Climbing FlightAware
07:56AM 60.5110 22.9880 319° Northwest 454 522 35,200 480 Climbing FlightAware
07:56AM 60.5640 22.8920 318° Northwest 452 520 35,500 480 Climbing FlightAware
07:57AM 60.6200 22.7910 319° Northwest 451 519 35,800 360 Climbing FlightAware
07:58AM 60.6750 22.6930 319° Northwest 453 521 36,000 120 Climbing FlightAware
07:58AM 60.7260 22.6010 319° Northwest 454 522 36,000  Level FlightAware
07:59AM 60.7850 22.4940 319° Northwest 450 518 36,000  Level FlightAware
07:59AM 60.8380 22.3970 318° Northwest 448 516 36,000  Level FlightAware
08:00AM 60.8860 22.3080 318° Northwest 447 514 36,000  Level FlightAware
08:01AM 60.9460 22.1970 318° Northwest 446 513 36,000  Level FlightAware
08:01AM 60.9950 22.1060 318° Northwest 446 513 36,000  Level FlightAware
08:02AM 61.0470 21.9910 313° West 441 507 36,000  Level FlightAware
08:02AM 61.0830 21.8890 306° West 439 505 36,000  Level FlightAware
08:03AM 61.1260 21.7480 302° West 439 505 36,000  Level FlightAware
08:03AM 61.1650 21.6240 303° West 439 505 36,000  Level FlightAware
08:04AM 61.2000 21.5090 302° West 440 506 36,000  Level FlightAware
08:05AM 61.2380 21.3800 302° West 440 506 36,000  Level FlightAware
08:05AM 61.2760 21.2510 302° West 440 506 36,000  Level FlightAware
08:06AM 61.3150 21.1180 301° West 440 506 36,000  Level FlightAware
08:06AM 61.3500 20.9980 301° West 438 504 36,000  Level FlightAware
08:07AM 61.3880 20.8680 301° West 438 504 36,000  Level FlightAware
08:08AM 61.4250 20.7420 302° West 437 503 36,000  Level FlightAware
08:08AM 61.4590 20.6230 301° West 435 501 36,000  Level FlightAware
08:09AM 61.4950 20.4980 301° West 436 502 36,000  Level FlightAware
08:09AM 61.5290 20.3770 301° West 436 502 36,000  Level FlightAware
08:10AM 61.5680 20.2380 301° West 435 501 36,000  Level FlightAware
08:10AM 61.6020 20.1190 301° West 436 502 36,000  Level FlightAware
08:11AM 61.6310 20.0160 301° West 435 501 36,000  Level FlightAware
08:12AM 61.6740 19.8600 300° West 435 501 36,000  Level FlightAware
08:12AM 61.7070 19.7420 301° West 433 498 36,000  Level FlightAware
08:13AM 61.7440 19.6060 300° West 433 498 36,000  Level FlightAware
08:13AM 61.7810 19.4700 300° West 431 496 36,000  Level FlightAware
08:14AM 61.8110 19.3470 297° West 430 495 36,000  Level FlightAware
08:15AM 61.8440 19.2110 297° West 429 494 36,000  Level FlightAware
08:15AM 61.8710 19.0960 297° West 428 493 36,000  Level FlightAware
08:16AM 61.9010 18.9750 298° West 429 494 36,000  Level FlightAware
08:16AM 61.9390 18.8160 297° West 426 490 36,000  Level FlightAware
08:17AM 61.9660 18.7040 297° West 426 490 36,000  Level FlightAware
08:17AM 62.0010 18.5590 297° West 424 488 36,000  Level FlightAware
08:18AM 62.0300 18.4350 297° West 424 488 36,000  Level FlightAware
08:19AM 62.0610 18.3070 297° West 424 488 36,000  Level FlightAware
08:19AM 62.0920 18.1740 297° West 424 488 36,000  Level FlightAware
08:20AM 62.1220 18.0440 296° West 425 489 36,000  Level FlightAware
08:20AM 62.1530 17.9080 296° West 426 490 36,000  Level FlightAware
08:21AM 62.1810 17.7870 296° West 426 490 36,000  Level FlightAware
08:22AM 62.2190 17.6210 296° West 426 490 36,000  Level FlightAware
08:22AM 62.2500 17.4870 296° West 425 489 36,000  Level FlightAware
08:23AM 62.2810 17.3490 296° West 425 489 36,000  Level FlightAware
08:23AM 62.3080 17.2280 296° West 424 488 36,000  Level FlightAware
08:24AM 62.3380 17.0920 295° West 423 487 36,000  Level FlightAware
08:25AM 62.3690 16.9540 296° West 423 487 36,000  Level FlightAware
08:25AM 62.3980 16.8190 295° West 420 483 36,000  Level FlightAware
08:26AM 62.4250 16.6970 296° West 419 482 36,000  Level FlightAware
08:26AM 62.4540 16.5620 295° West 420 483 36,000  Level FlightAware
08:27AM 62.4840 16.4250 295° West 419 482 36,000  Level FlightAware
08:28AM 62.5130 16.2890 295° West 418 481 36,000  Level FlightAware
08:28AM 62.5390 16.1690 295° West 419 482 36,000  Level FlightAware
08:29AM 62.5680 16.0330 295° West 419 482 36,000  Level FlightAware
08:29AM 62.5980 15.8880 294° West 418 481 36,000  Level FlightAware
08:30AM 62.6210 15.7800 295° West 418 481 36,000  Level FlightAware
08:30AM 62.6530 15.6250 294° West 419 482 36,000  Level FlightAware
08:31AM 62.6810 15.4910 295° West 418 481 36,000  Level FlightAware
08:32AM 62.7090 15.3510 294° West 418 481 36,000  Level FlightAware
08:32AM 62.7350 15.2280 295° West 419 482 36,000  Level FlightAware
08:33AM 62.7630 15.0880 294° West 419 482 36,000  Level FlightAware
08:33AM 62.7910 14.9490 294° West 419 482 36,000  Level FlightAware
08:34AM 62.8160 14.8240 294° West 417 480 36,000  Level FlightAware
08:34AM 62.8420 14.6900 293° West 417 480 36,000  Level FlightAware
08:35AM 62.8700 14.5500 294° West 417 480 36,000  Level FlightAware
08:36AM 62.8960 14.4190 294° West 416 479 36,000  Level FlightAware
08:36AM 62.9230 14.2780 293° West 418 481 36,000  Level FlightAware
08:37AM 62.9500 14.1390 293° West 417 480 36,000  Level FlightAware
08:37AM 62.9770 13.9950 292° West 418 481 36,000  Level FlightAware
08:38AM 63.0020 13.8680 293° West 417 480 36,000  Level FlightAware
08:39AM 63.0260 13.7400 293° West 416 479 36,000  Level FlightAware
08:39AM 63.0530 13.5980 293° West 420 483 36,000  Level FlightAware
08:40AM 63.0790 13.4650 293° West 421 484 36,000  Level FlightAware
08:40AM 63.1070 13.3320 295° West 416 479 36,000  Level FlightAware
08:41AM 63.1360 13.1850 294° West 413 475 36,000  Level FlightAware
08:42AM 63.1640 13.0470 294° West 414 476 36,000  Level FlightAware
08:42AM 63.1870 12.9260 293° West 415 478 36,000  Level FlightAware
08:43AM 63.2150 12.7860 294° West 412 474 36,000  Level FlightAware
08:43AM 63.2420 12.6440 293° West 412 474 36,000  Level FlightAware
08:44AM 63.2690 12.5050 293° West 413 475 36,000  Level FlightAware
08:44AM 63.2940 12.3740 293° West 412 474 36,000  Level FlightAware
08:45AM 63.3210 12.2340 293° West 413 475 36,000  Level FlightAware
08:46AM 63.3450 12.1080 293° West 413 475 36,000  Level FlightAware
08:46AM 63.3720 11.9660 293° West 412 474 36,000  Level FlightAware
08:47AM 63.3980 11.8260 293° West 411 473 36,000  Level FlightAware
08:47AM 63.4220 11.6950 292° West 409 471 36,000  Level FlightAware
08:48AM 63.4490 11.5500 293° West 408 470 36,000  Level FlightAware
08:48AM 63.4730 11.4200 293° West 410 472 36,000  Level FlightAware
08:49AM 63.4970 11.2880 292° West 410 472 36,000  Level FlightAware
08:50AM 63.5220 11.1470 292° West 411 473 36,000  Level FlightAware
08:50AM 63.5480 11.0030 292° West 411 473 36,000  Level FlightAware
08:51AM 63.5710 10.8720 292° West 409 471 36,000  Level FlightAware
08:51AM 63.5960 10.7290 292° West 408 470 36,000  Level FlightAware
08:52AM 63.6210 10.5870 292° West 409 471 36,000  Level FlightAware
08:53AM 63.6460 10.4460 292° West 409 471 36,000  Level FlightAware
08:53AM 63.6670 10.3210 291° West 408 470 36,000  Level FlightAware
08:54AM 63.6930 10.1700 291° West 410 472 36,000  Level FlightAware
08:54AM 63.7150 10.0420 291° West 409 471 36,000  Level FlightAware
08:55AM 63.7390 9.8990 291° West 408 470 36,000  Level FlightAware
08:55AM 63.7620 9.7630 291° West 407 468 36,000  Level FlightAware
08:56AM 63.7880 9.6100 291° West 406 467 36,000  Level FlightAware
08:57AM 63.8090 9.4830 291° West 404 465 36,000  Level FlightAware
08:57AM 63.8320 9.3390 290° West 404 465 36,000  Level FlightAware
08:58AM 63.8530 9.2090 290° West 404 465 36,000  Level FlightAware
08:58AM 63.8760 9.0680 290° West 406 467 36,000  Level FlightAware
08:59AM 63.9000 8.9220 291° West 407 468 36,000  Level FlightAware
09:00AM 63.9230 8.7740 290° West 408 470 36,000  Level FlightAware
09:00AM 63.9440 8.6430 290° West 408 470 36,000  Level FlightAware
09:01AM 63.9660 8.5040 290° West 409 471 36,000  Level FlightAware
09:01AM 63.9860 8.3710 289° West 409 471 36,000  Level FlightAware
09:02AM 64.0090 8.2240 290° West 408 470 36,000  Level FlightAware
09:03AM 64.0320 8.0710 289° West 409 471 36,000  Level FlightAware
09:03AM 64.0540 7.9270 289° West 410 472 36,000  Level FlightAware
09:04AM 64.0750 7.7920 290° West 411 473 36,000  Level FlightAware
09:04AM 64.0960 7.6480 289° West 411 473 36,000  Level FlightAware
09:05AM 64.1180 7.5000 289° West 410 472 36,000  Level FlightAware
09:05AM 64.1390 7.3580 289° West 409 471 36,000  Level FlightAware
09:06AM 64.1610 7.2060 288° West 408 470 36,000  Level FlightAware
09:07AM 64.1800 7.0740 288° West 407 468 36,000  Level FlightAware
09:07AM 64.2010 6.9320 289° West 407 468 36,000  Level FlightAware
09:08AM 64.2210 6.7870 288° West 406 467 36,000  Level FlightAware
09:08AM 64.2390 6.6620 288° West 405 466 36,000  Level FlightAware
09:09AM 64.2600 6.5120 288° West 404 465 36,000  Level FlightAware
09:10AM 64.2810 6.3620 288° West 403 464 36,000  Level FlightAware
09:10AM 64.3020 6.2110 288° West 403 464 36,000  Level FlightAware
09:11AM 64.3210 6.0700 287° West 403 464 36,000  Level FlightAware
09:12AM 64.3430 5.9010 287° West 402 463 36,000  Level FlightAware
09:12AM 64.3700 5.7060 288° West 401 461 36,000  Level FlightAware
09:13AM 64.3900 5.5530 287° West 402 463 36,000  Level FlightAware
09:13AM 64.4070 5.4250 287° West 403 464 36,000  Level FlightAware
09:14AM 64.4230 5.3000 287° West 404 465 36,000  Level FlightAware
09:15AM 64.4460 5.1190 286° West 404 465 36,000  Level FlightAware
09:15AM 64.4650 4.9740 287° West 404 465 36,000  Level FlightAware
09:16AM 64.4810 4.8420 286° West 405 466 36,000  Level FlightAware
09:16AM 64.5000 4.6910 286° West 404 465 36,000  Level FlightAware
09:17AM 64.5180 4.5450 286° West 404 465 36,000  Level FlightAware
09:17AM 64.5370 4.3930 286° West 404 465 36,000  Level FlightAware
09:18AM 64.5540 4.2560 286° West 403 464 36,000  Level FlightAware
09:19AM 64.5710 4.1170 286° West 403 464 36,000  Level FlightAware
09:19AM 64.5900 3.9520 285° West 404 465 36,000  Level FlightAware
09:20AM 64.6060 3.8150 285° West 404 465 36,000  Level FlightAware
09:20AM 64.6240 3.6620 285° West 405 466 36,000  Level FlightAware
09:21AM 64.6420 3.5120 286° West 403 464 36,000  Level FlightAware
09:22AM 64.6570 3.3790 285° West 404 465 36,000  Level FlightAware
09:22AM 64.6750 3.2220 285° West 405 466 36,000  Level FlightAware
09:23AM 64.6920 3.0720 285° West 406 467 36,000  Level FlightAware
09:23AM 64.7070 2.9380 285° West 406 467 36,000  Level FlightAware
09:24AM 64.7210 2.8040 284° West 406 467 36,000  Level FlightAware
09:24AM 64.7350 2.6730 284° West 406 467 36,000  Level FlightAware
09:25AM 64.7490 2.5350 283° West 406 467 36,000  Level FlightAware
09:26AM 64.7630 2.4040 284° West 406 467 36,000  Level FlightAware
09:26AM 64.7780 2.2700 285° West 406 467 36,000  Level FlightAware
09:27AM 64.7910 2.1460 284° West 406 467 36,000  Level FlightAware
09:28AM 64.8050 2.0120 284° West 406 467 36,000  Level FlightAware
09:28AM 64.8190 1.8800 284° West 406 467 36,000  Level FlightAware
09:29AM 64.8330 1.7490 284° West 406 467 36,000  Level FlightAware
09:29AM 64.8470 1.6150 284° West 406 467 36,000  Level FlightAware
09:30AM 64.8600 1.4910 284° West 406 467 36,000  Level FlightAware
09:31AM 64.8750 1.3560 285° West 406 467 36,000  Level FlightAware
09:31AM 64.8880 1.2240 283° West 406 467 36,000  Level FlightAware
09:32AM 64.9030 1.0890 285° West 406 467 36,000  Level FlightAware
09:32AM 64.9170 0.9580 284° West 406 467 36,000  Level FlightAware
09:33AM 64.9300 0.8260 283° West 406 467 36,000  Level FlightAware
09:36AM 64.9516 0.0728 274° West  Level Estimated
09:37AM 64.9589 -0.2190 274° West  Level Estimated
09:38AM 64.9657 -0.5111 273° West  Level Estimated
09:39AM 64.9718 -0.8032 273° West  Level Estimated
09:40AM 64.9774 -1.0955 273° West  Level Estimated
09:41AM 64.9825 -1.3879 272° West  Level Estimated
09:42AM 64.9870 -1.6804 272° West  Level Estimated
09:43AM 64.9909 -1.9730 272° West  Level Estimated
09:44AM 64.9942 -2.2657 272° West  Level Estimated
09:45AM 64.9969 -2.5584 271° West  Level Estimated
09:46AM 64.9991 -2.8512 271° West  Level Estimated
09:47AM 65.0007 -3.1441 271° West  Level Estimated
09:48AM 65.0018 -3.4369 271° West  Level Estimated
09:49AM 65.0022 -3.7298 270° West  Level Estimated
09:50AM 65.0021 -4.0227 270° West  Level Estimated
09:51AM 65.0014 -4.3156 270° West  Level Estimated
09:52AM 65.0002 -4.6085 270° West  Level Estimated
09:53AM 64.9983 -4.9013 269° West  Level Estimated
09:54AM 64.9959 -5.1941 269° West  Level Estimated
09:55AM 64.9929 -5.4868 269° West  Level Estimated
09:56AM 64.9894 -5.7794 268° West  Level Estimated
09:57AM 64.9853 -6.0720 268° West  Level Estimated
09:58AM 64.9806 -6.3645 268° West  Level Estimated
09:59AM 64.9753 -6.6568 268° West  Level Estimated
10:00AM 64.9695 -6.9491 267° West  Level Estimated
10:01AM 64.9630 -7.2412 267° West  Level Estimated
10:02AM 64.9561 -7.5331 267° West  Level Estimated
10:03AM 64.9485 -7.8249 267° West  Level Estimated
10:04AM 64.9404 -8.1166 266° West  Level Estimated
10:05AM 64.9317 -8.4080 266° West  Level Estimated
10:06AM 64.9224 -8.6992 266° West  Level Estimated
10:07AM 64.9126 -8.9903 266° West  Level Estimated
10:08AM 64.9022 -9.2811 265° West  Level Estimated
10:09AM 64.8913 -9.5717 265° West  Level Estimated
10:10AM 64.8797 -9.8620 265° West  Level Estimated
10:11AM 64.8676 -10.1521 265° West  Level Estimated
10:12AM 64.8550 -10.4420 264° West  Level Estimated
10:13AM 64.8418 -10.7315 264° West  Level Estimated
10:14AM 64.8280 -11.0208 264° West  Level Estimated
10:15AM 64.8136 -11.3097 263° West  Level Estimated
10:16AM 64.7987 -11.5984 263° West  Level Estimated
10:17AM 64.7832 -11.8867 263° West  Level Estimated
10:18AM 64.7672 -12.1747 263° West  Level Estimated
10:19AM 64.7506 -12.4623 262° West  Level Estimated
10:20AM 64.7335 -12.7496 262° West  Level Estimated
10:21AM 64.7158 -13.0365 262° West  Level Estimated
10:22AM 64.6976 -13.3230 262° West  Level Estimated
10:23AM 64.6788 -13.6091 261° West  Level Estimated
10:23AM 65.0770 -13.5890 261° West 439 505 36,000  Level FlightAware
10:24AM 65.0790 -13.7660 272° West 439 505 36,000  Level FlightAware
10:24AM 65.0800 -13.9290 271° West 439 505 36,000  Level FlightAware
10:25AM 65.0810 -14.0850 271° West 438 504 36,000  Level FlightAware
10:26AM 65.0820 -14.2600 271° West 439 505 36,000  Level FlightAware
10:26AM 65.0830 -14.4270 271° West 439 505 36,000  Level FlightAware
10:27AM 65.0830 -14.6030 270° West 439 505 36,000  Level FlightAware
10:27AM 65.0840 -14.7650 271° West 439 505 36,000  Level FlightAware
10:28AM 65.0840 -14.9400 270° West 439 505 36,000  Level FlightAware
10:29AM 65.0840 -15.1000 270° West 439 505 36,000  Level FlightAware
10:29AM 65.0840 -15.2760 270° West 439 505 36,000  Level FlightAware
10:30AM 65.0830 -15.4160 269° West 439 505 36,000  Level FlightAware
10:30AM 65.0830 -15.6090 270° West 438 504 36,000  Level FlightAware
10:31AM 65.0820 -15.7710 269° West 438 504 36,000  Level FlightAware
10:31AM 65.0810 -15.9350 269° West 439 505 36,000  Level FlightAware
10:32AM 65.0800 -16.1160 269° West 440 506 36,000  Level FlightAware
10:33AM 65.0790 -16.2730 269° West 441 507 36,000  Level FlightAware
10:33AM 65.0770 -16.4460 269° West 443 510 36,000  Level FlightAware
10:34AM 65.0750 -16.6260 269° West 446 513 36,000  Level FlightAware
10:34AM 65.0730 -16.7870 268° West 448 516 36,000  Level FlightAware
10:35AM 65.0710 -16.9580 268° West 449 517 36,000  Level FlightAware
10:36AM 65.0690 -17.1400 269° West 450 518 36,000  Level FlightAware
10:36AM 65.0660 -17.2950 267° West 449 517 36,000  Level FlightAware
10:37AM 65.0640 -17.4530 268° West 449 517 36,000  Level FlightAware
10:37AM 65.0610 -17.6430 268° West 449 517 36,000  Level FlightAware
10:38AM 65.0580 -17.8050 268° West 448 516 36,000  Level FlightAware
10:38AM 65.0540 -17.9850 267° West 447 514 36,000  Level FlightAware
10:39AM 65.0510 -18.1590 268° West 446 513 36,000  Level FlightAware
10:40AM 65.0470 -18.3330 267° West 446 513 36,000  Level FlightAware
10:40AM 65.0430 -18.4920 267° West 446 513 36,000  Level FlightAware
10:41AM 65.0390 -18.6670 267° West 445 512 36,000  Level FlightAware
10:41AM 65.0350 -18.8370 267° West 443 510 36,000  Level FlightAware
10:42AM 65.0300 -19.0120 266° West 441 507 36,000  Level FlightAware
10:43AM 65.0250 -19.1870 266° West 441 507 36,000  Level FlightAware
10:43AM 65.0210 -19.3370 266° West 440 506 36,000  Level FlightAware
10:44AM 65.0160 -19.5080 266° West 439 505 36,000  Level FlightAware
10:44AM 65.0100 -19.6870 266° West 438 504 36,000  Level FlightAware
10:45AM 65.0050 -19.8460 266° West 437 503 36,000  Level FlightAware
10:46AM 64.9990 -20.0190 265° West 435 501 36,000  Level FlightAware
10:46AM 64.9890 -20.1760 262° West 434 499 36,000  Level FlightAware
10:47AM 64.9780 -20.3420 261° West 433 498 36,000  Level FlightAware
10:47AM 64.9680 -20.4960 261° West 433 498 36,000  Level FlightAware
10:48AM 64.9580 -20.6430 261° West 433 498 36,000  Level FlightAware
10:48AM 64.9460 -20.8250 261° West 433 498 36,000  Level FlightAware
10:49AM 64.9350 -20.9760 260° West 433 498 36,000  Level FlightAware
10:50AM 64.9220 -21.1640 261° West 433 498 36,000  Level FlightAware
10:50AM 64.9110 -21.3140 260° West 433 498 36,000  Level FlightAware
10:51AM 64.8990 -21.4710 260° West 434 499 36,000  Level FlightAware
10:51AM 64.8880 -21.6300 261° West 434 499 36,000  Level FlightAware
10:52AM 64.8750 -21.7980 260° West 435 501 36,000  Level FlightAware
10:53AM 64.8610 -21.9750 260° West 436 502 36,000  Level FlightAware
10:53AM 64.8500 -22.1200 260° West 436 502 36,000  Level FlightAware
10:54AM 64.8370 -22.2870 260° West 436 502 36,000  Level FlightAware
10:54AM 64.8240 -22.4460 259° West 435 501 36,000  Level FlightAware
10:55AM 64.8100 -22.6220 259° West 434 499 36,000  Level FlightAware
10:55AM 64.7980 -22.7710 259° West 434 499 36,000  Level FlightAware
10:56AM 64.7840 -22.9320 259° West 434 499 36,000  Level FlightAware
10:57AM 64.7690 -23.1060 259° West 434 499 36,000  Level FlightAware
10:57AM 64.7560 -23.2630 259° West 434 499 36,000  Level FlightAware
10:58AM 64.7430 -23.4130 259° West 435 501 36,000  Level FlightAware
10:58AM 64.7280 -23.5810 258° West 437 503 36,000  Level FlightAware
10:59AM 64.7130 -23.7460 258° West 438 504 36,000  Level FlightAware
10:59AM 64.6990 -23.9000 258° West 439 505 36,000  Level FlightAware
11:00AM 64.6830 -24.0750 258° West 440 506 36,000  Level FlightAware
11:01AM 64.6690 -24.2210 257° West 442 509 36,000  Level FlightAware
11:01AM 64.6550 -24.3760 258° West 443 510 36,000  Level FlightAware
11:02AM 64.6390 -24.5380 257° West 444 511 36,000  Level FlightAware
11:02AM 64.6220 -24.7200 258° West 445 512 36,000  Level FlightAware
11:03AM 64.6060 -24.8780 257° West 445 512 36,000  Level FlightAware
11:04AM 64.5900 -25.0440 257° West 445 512 36,000  Level FlightAware
11:04AM 64.5730 -25.2120 257° West 445 512 36,000  Level FlightAware
11:05AM 64.5560 -25.3790 257° West 446 513 36,000  Level FlightAware
11:05AM 64.5410 -25.5210 256° West 446 513 36,000  Level FlightAware
11:06AM 64.5250 -25.6780 257° West 446 513 36,000  Level FlightAware
11:07AM 64.5060 -25.8630 257° West 448 516 36,000  Level FlightAware
11:07AM 64.4900 -26.0130 256° West 450 518 36,000  Level FlightAware
11:08AM 64.4710 -26.1820 255° West 450 518 36,000  Level FlightAware
11:08AM 64.4540 -26.3380 256° West 450 518 36,000  Level FlightAware
11:09AM 64.4360 -26.5040 256° West 450 518 36,000  Level FlightAware
11:09AM 64.4170 -26.6750 256° West 450 518 36,000  Level FlightAware
11:10AM 64.3990 -26.8330 255° West 451 519 36,000  Level FlightAware
11:11AM 64.3820 -26.9810 255° West 452 520 36,000  Level FlightAware
11:12AM 64.3480 -27.2800 255° West 453 521 36,000  Level FlightAware
11:12AM 64.3290 -27.4380 255° West 454 522 36,000  Level FlightAware
11:13AM 64.3110 -27.5910 255° West 454 522 36,000  Level FlightAware
11:13AM 64.2900 -27.7690 255° West 454 522 36,000  Level FlightAware
11:14AM 64.2700 -27.9340 254° West 454 522 36,000  Level FlightAware
11:15AM 64.2500 -28.0950 254° West 454 522 36,000  Level FlightAware
11:15AM 64.2310 -28.2420 254° West 454 522 36,000  Level FlightAware
11:16AM 64.2090 -28.4200 254° West 455 524 36,000  Level FlightAware
11:16AM 64.1880 -28.5850 254° West 457 526 36,000  Level FlightAware
11:17AM 64.1720 -28.7170 255° West 458 527 36,000  Level FlightAware
11:17AM 64.1520 -28.8660 253° West 460 529 36,000  Level FlightAware
11:18AM 64.1300 -29.0400 254° West 461 531 36,000  Level FlightAware
11:18AM 64.1090 -29.1990 253° West 462 532 36,000  Level FlightAware
11:19AM 64.0870 -29.3650 253° West 464 534 36,000  Level FlightAware
11:20AM 64.0660 -29.5150 252° West 465 535 36,000  Level FlightAware
11:20AM 64.0420 -29.6950 253° West 465 535 36,000  Level FlightAware
11:21AM 64.0210 -29.8530 253° West 466 536 36,000  Level FlightAware
11:21AM 63.9990 -30.0120 253° West 466 536 36,000  Level FlightAware
11:22AM 63.9650 -30.2340 251° West 466 536 36,000  Level FlightAware
11:23AM 63.9370 -30.4090 250° West 467 537 36,000  Level FlightAware
11:23AM 63.9140 -30.5570 251° West 467 537 36,000  Level FlightAware
11:24AM 63.8900 -30.7070 250° West 465 535 36,000  Level FlightAware
11:25AM 63.8610 -30.8900 250° West 465 535 36,000  Level FlightAware
11:25AM 63.8370 -31.0340 249° West 464 534 36,000  Level FlightAware
11:26AM 63.8100 -31.2030 250° West 463 533 36,000  Level FlightAware
11:26AM 63.7840 -31.3590 249° West 463 533 36,000  Level FlightAware
11:27AM 63.7570 -31.5200 249° West 463 533 36,000  Level FlightAware
11:28AM 63.7230 -31.7250 250° West 463 533 36,000  Level FlightAware
11:28AM 63.6980 -31.8710 249° West 463 533 36,000  Level FlightAware
11:29AM 63.6740 -32.0130 249° West 463 533 36,000  Level FlightAware
11:30AM 63.6520 -32.1430 249° West 463 533 36,000  Level FlightAware
11:30AM 63.6270 -32.2890 249° West 463 533 36,000  Level FlightAware
11:31AM 63.6030 -32.4300 249° West 463 533 36,000  Level FlightAware
11:31AM 63.5790 -32.5680 249° West 463 533 36,000  Level FlightAware
11:32AM 63.5560 -32.7050 249° West 463 533 36,000  Level FlightAware
11:33AM 63.5310 -32.8460 248° West 463 533 36,000  Level FlightAware
11:33AM 63.5080 -32.9830 249° West 463 533 36,000  Level FlightAware
11:34AM 63.4840 -33.1240 249° West 463 533 36,000  Level FlightAware
11:34AM 63.4580 -33.2730 249° West 463 533 36,000  Level FlightAware
11:35AM 63.4350 -33.4100 249° West 463 533 36,000  Level FlightAware
11:36AM 63.4110 -33.5460 249° West 463 533 36,000  Level FlightAware
11:36AM 63.3870 -33.6870 249° West 463 533 36,000  Level FlightAware
11:37AM 63.3640 -33.8230 249° West 463 533 36,000  Level FlightAware
11:40AM 63.2310 -34.4928 246° West  Level FlightAware Approximate
11:41AM 63.1797 -34.7455 246° West  Level FlightAware Approximate
11:42AM 63.1280 -34.9974 246° West  Level FlightAware Approximate
11:43AM 63.0757 -35.2483 245° Southwest  Level FlightAware Approximate
11:44AM 63.0231 -35.4983 245° Southwest  Level FlightAware Approximate
11:45AM 62.9700 -35.7475 245° Southwest  Level FlightAware Approximate
11:46AM 62.9165 -35.9957 245° Southwest  Level FlightAware Approximate
11:47AM 62.8625 -36.2430 245° Southwest  Level FlightAware Approximate
11:48AM 62.8096 -36.4913 245° Southwest  Level FlightAware Approximate
11:49AM 62.7567 -36.7389 245° Southwest  Level FlightAware Approximate
11:50AM 62.7034 -36.9855 245° Southwest  Level FlightAware Approximate
11:51AM 62.6497 -37.2313 245° Southwest  Level FlightAware Approximate
11:52AM 62.5956 -37.4762 244° Southwest  Level FlightAware Approximate
11:53AM 62.5410 -37.7202 244° Southwest  Level FlightAware Approximate
11:54AM 62.4860 -37.9633 244° Southwest  Level FlightAware Approximate
11:55AM 62.4305 -38.2055 244° Southwest  Level FlightAware Approximate
11:56AM 62.3747 -38.4468 244° Southwest  Level FlightAware Approximate
11:57AM 62.3185 -38.6872 243° Southwest  Level FlightAware Approximate
11:58AM 62.2618 -38.9267 243° Southwest  Level FlightAware Approximate
11:59AM 62.2047 -39.1652 243° Southwest  Level FlightAware Approximate
12:00PM 62.1472 -39.4029 243° Southwest  Level FlightAware Approximate
12:01PM 62.0893 -39.6397 243° Southwest  Level FlightAware Approximate
12:02PM 62.0310 -39.8756 242° Southwest  Level FlightAware Approximate
12:03PM 61.9816 -40.1190 252° West  Level FlightAware Approximate
12:04PM 61.9422 -40.3713 252° West  Level FlightAware Approximate
12:05PM 61.9023 -40.6228 251° West  Level FlightAware Approximate
12:06PM 61.8619 -40.8738 251° West  Level FlightAware Approximate
12:07PM 61.8211 -41.1240 251° West  Level FlightAware Approximate
12:08PM 61.7798 -41.3736 251° West  Level FlightAware Approximate
12:09PM 61.7381 -41.6226 251° West  Level FlightAware Approximate
12:10PM 61.6960 -41.8708 250° West  Level FlightAware Approximate
12:11PM 61.6534 -42.1184 250° West  Level FlightAware Approximate
12:12PM 61.6103 -42.3652 250° West  Level FlightAware Approximate
12:13PM 61.5668 -42.6114 250° West  Level FlightAware Approximate
12:14PM 61.5229 -42.8569 250° West  Level FlightAware Approximate
12:15PM 61.4789 -43.1021 250° West  Level FlightAware Approximate
12:16PM 61.4350 -43.3469 250° West  Level FlightAware Approximate
12:17PM 61.3907 -43.5910 249° West  Level FlightAware Approximate
12:18PM 61.3459 -43.8345 249° West  Level FlightAware Approximate
12:19PM 61.3007 -44.0772 249° West  Level FlightAware Approximate
12:20PM 61.2550 -44.3193 249° West  Level FlightAware Approximate
12:21PM 61.2087 -44.5604 248° West  Level FlightAware Approximate
12:22PM 61.1618 -44.8007 248° West  Level FlightAware Approximate
12:23PM 61.1144 -45.0402 248° West  Level FlightAware Approximate
12:24PM 61.0666 -45.2790 248° West  Level FlightAware Approximate
12:25PM 61.0183 -45.5171 247° West  Level FlightAware Approximate
12:26PM 60.9697 -45.7545 247° West  Level FlightAware Approximate
12:27PM 60.9206 -45.9911 247° West  Level FlightAware Approximate
12:28PM 60.8712 -46.2270 247° West  Level FlightAware Approximate
12:29PM 60.8213 -46.4622 247° West  Level FlightAware Approximate
12:30PM 60.7710 -46.6966 246° West  Level FlightAware Approximate
12:31PM 60.7203 -46.9303 246° West  Level FlightAware Approximate
12:32PM 60.6692 -47.1632 246° West  Level FlightAware Approximate
12:33PM 60.6176 -47.3954 246° West  Level FlightAware Approximate
12:34PM 60.5657 -47.6269 246° West  Level FlightAware Approximate
12:35PM 60.5134 -47.8576 245° Southwest  Level FlightAware Approximate
12:36PM 60.4607 -48.0876 245° Southwest  Level FlightAware Approximate
12:37PM 60.4076 -48.3168 245° Southwest  Level FlightAware Approximate
12:38PM 60.3541 -48.5453 245° Southwest  Level FlightAware Approximate
12:39PM 60.3002 -48.7730 245° Southwest  Level FlightAware Approximate
12:40PM 60.2459 -49.0000 244° Southwest  Level FlightAware Approximate
12:41PM 60.1913 -49.2262 244° Southwest  Level FlightAware Approximate
12:42PM 60.1362 -49.4517 244° Southwest  Level FlightAware Approximate
12:43PM 60.0808 -49.6764 244° Southwest  Level FlightAware Approximate
12:44PM 60.0250 -49.9004 244° Southwest  Level FlightAware Approximate
12:45PM 59.9692 -50.1239 244° Southwest  Level FlightAware Approximate
12:46PM 59.9133 -50.3470 244° Southwest  Level FlightAware Approximate
12:47PM 59.8570 -50.5694 243° Southwest  Level FlightAware Approximate
12:48PM 59.8003 -50.7909 243° Southwest  Level FlightAware Approximate
12:49PM 59.7433 -51.0118 243° Southwest  Level FlightAware Approximate
12:50PM 59.6858 -51.2318 243° Southwest  Level FlightAware Approximate
12:51PM 59.6281 -51.4511 243° Southwest  Level FlightAware Approximate
12:52PM 59.5699 -51.6697 242° Southwest  Level FlightAware Approximate
12:53PM 59.5114 -51.8875 242° Southwest  Level FlightAware Approximate
12:54PM 59.4526 -52.1046 242° Southwest  Level FlightAware Approximate
12:55PM 59.3933 -52.3209 242° Southwest  Level FlightAware Approximate
12:56PM 59.3338 -52.5364 242° Southwest  Level FlightAware Approximate
12:57PM 59.2738 -52.7512 241° Southwest  Level FlightAware Approximate
12:58PM 59.2135 -52.9652 241° Southwest  Level FlightAware Approximate
12:59PM 59.1529 -53.1784 241° Southwest  Level FlightAware Approximate
01:00PM 59.0919 -53.3909 241° Southwest  Level FlightAware Approximate
01:01PM 59.0306 -53.6027 241° Southwest  Level FlightAware Approximate
01:02PM 58.9689 -53.8137 241° Southwest  Level FlightAware Approximate
01:02PM 58.6167 -54.8833 240° Southwest 460 529 36,000  Level Gander Center
01:03PM 58.9069 -54.0239 240° Southwest  Level FlightAware Approximate
01:03PM 58.5833 -55.0833 252° West 450 518 36,000  Level Gander Center
01:04PM 58.8445 -54.2334 240° Southwest  Level FlightAware Approximate
01:04PM 58.5000 -55.3167 236° Southwest 460 529 36,000  Level Gander Center
01:05PM 58.7818 -54.4421 240° Southwest  Level FlightAware Approximate
01:05PM 58.4333 -55.5167 238° Southwest 460 529 36,000  Level Gander Center
01:06PM 58.7190 -54.6495 240° Southwest  Level FlightAware Approximate
01:06PM 58.3500 -55.7167 232° Southwest 460 529 36,000  Level Gander Center
01:07PM 58.6558 -54.8562 240° Southwest  Level FlightAware Approximate
01:07PM 58.3167 -55.9500 255° West 460 529 36,000  Level Gander Center
01:08PM 58.2333 -56.1500 232° Southwest 460 529 36,000  Level Gander Center
01:09PM 58.1667 -56.3500 238° Southwest 460 529 36,000  Level Gander Center
01:10PM 58.1000 -56.5500 238° Southwest 470 541 36,000  Level Gander Center
01:11PM 58.0333 -56.7833 242° Southwest 460 529 36,000  Level Gander Center
01:12PM 57.9667 -56.9667 236° Southwest 460 529 36,000  Level Gander Center
01:13PM 57.8833 -57.1667 232° Southwest 460 529 36,000  Level Gander Center
01:14PM 57.8333 -57.3667 245° Southwest 460 529 36,000  Level Gander Center
01:15PM 57.7500 -57.6000 236° Southwest 460 529 36,000  Level Gander Center
01:16PM 57.6833 -57.7833 236° Southwest 460 529 36,000  Level Gander Center
01:17PM 57.6167 -57.9833 238° Southwest 460 529 36,000  Level Gander Center
01:18PM 57.5500 -58.1667 236° Southwest 460 529 36,000  Level Gander Center
01:19PM 57.4667 -58.4000 236° Southwest 460 529 36,000  Level Gander Center
01:20PM 57.4167 -58.5833 243° Southwest 460 529 36,000  Level Gander Center
01:21PM 57.3333 -58.7833 232° Southwest 470 541 36,000  Level Gander Center
01:22PM 57.2667 -59.0000 240° Southwest 470 541 36,000  Level Gander Center
01:23PM 57.1667 -59.1667 222° Southwest 470 541 36,000  Level Gander Center
01:24PM 57.0667 -59.2833 212° Southwest 460 529 36,000  Level Gander Center
01:25PM 56.9667 -59.4167 216° Southwest 450 518 36,000  Level Gander Center
01:26PM 56.8500 -59.5500 212° Southwest 450 518 36,000  Level Gander Center
01:27PM 56.7667 -59.6667 218° Southwest 450 518 36,000  Level Gander Center
01:28PM 56.6500 -59.8000 212° Southwest 450 518 36,000  Level Gander Center
01:29PM 56.5333 -59.8833 202° Southwest 450 518 36,000  Level Gander Center
01:30PM 56.4167 -60.0167 212° Southwest 460 529 36,000  Level Gander Center
01:31PM 56.3167 -60.1333 213° Southwest 450 518 36,000  Level Gander Center
01:32PM 56.2000 -60.2667 212° Southwest 460 529 36,000  Level Gander Center
01:33PM 56.1000 -60.3500 205° Southwest 460 529 36,000  Level Gander Center
01:34PM 55.9833 -60.4833 213° Southwest 460 529 36,000  Level Gander Center
01:35PM 55.8667 -60.6000 209° Southwest 460 529 36,000  Level Gander Center
01:36PM 55.7667 -60.7167 213° Southwest 460 529 36,000  Level Gander Center
01:37PM 55.6500 -60.8333 209° Southwest 470 541 36,000  Level Gander Center
01:38PM 55.5333 -60.9333 206° Southwest 460 529 36,000  Level Gander Center
01:39PM 55.4167 -61.0500 210° Southwest 460 529 36,000  Level Gander Center
01:40PM 55.3167 -61.1667 214° Southwest 460 529 36,000  Level Gander Center
01:41PM 55.2000 -61.2833 210° Southwest 470 541 36,000  Level Gander Center
01:42PM 55.0833 -61.4000 210° Southwest 460 529 36,000  Level Gander Center
01:43PM 54.9833 -61.4833 206° Southwest 470 541 36,000  Level Gander Center
01:44PM 54.8667 -61.6000 210° Southwest 470 541 36,000  Level Gander Center
01:45PM 54.7500 -61.7167 210° Southwest 460 529 36,000  Level Gander Center
01:46PM 54.6333 -61.8333 210° Southwest 470 541 36,000  Level Gander Center
01:47PM 54.5333 -61.9500 214° Southwest 470 541 36,000  Level Gander Center
01:48PM 54.4167 -62.0500 207° Southwest 470 541 36,000  Level Gander Center
01:49PM 54.3000 -62.1667 210° Southwest 470 541 36,000  Level Gander Center
01:50PM 54.1833 -62.2833 210° Southwest 470 541 36,000  Level Gander Center
01:51PM 54.0667 -62.3667 203° Southwest 470 541 36,000  Level Gander Center
01:52PM 53.9667 -62.4833 214° Southwest 470 541 36,000  Level Gander Center
01:53PM 53.8333 -62.5833 204° Southwest 460 529 36,000  Level Gander Center
01:54PM 53.7167 -62.7000 211° Southwest 460 529 36,000  Level Gander Center
01:55PM 53.6000 -62.8000 207° Southwest 460 529 36,000  Level Gander Center
01:57PM 53.3833 -63.0000 209° Southwest 470 541 36,000  Level Gander Center
01:59PM 53.1500 -63.2000 207° Southwest 470 541 36,000  Level Gander Center
02:01PM 52.9000 -63.4333 209° Southwest 470 541 36,000  Level Moncton Center
02:02PM 52.7833 -63.5333 207° Southwest 470 541 36,000  Level Moncton Center
02:03PM 52.6667 -63.6167 203° Southwest 470 541 36,000  Level Moncton Center
02:04PM 52.5500 -63.7333 211° Southwest 470 541 36,000  Level Moncton Center
02:05PM 52.4333 -63.8167 204° Southwest 470 541 36,000  Level Moncton Center
02:06PM 52.3167 -63.9333 211° Southwest 470 541 36,000  Level Moncton Center
02:07PM 52.2000 -64.0500 212° Southwest 470 541 36,000  Level Moncton Center
02:08PM 52.0833 -64.1167 199° South 470 541 36,000  Level Moncton Center
02:09PM 51.9667 -64.2333 212° Southwest 470 541 36,000  Level Moncton Center
02:10PM 51.8500 -64.3500 212° Southwest 480 552 36,000  Level Moncton Center
02:11PM 51.7333 -64.4167 199° South 470 541 36,000  Level Moncton Center
02:12PM 51.6167 -64.5333 212° Southwest 470 541 36,000  Level Moncton Center
02:13PM 51.5000 -64.6167 204° Southwest 480 552 36,000  Level Moncton Center
02:14PM 51.3833 -64.7167 208° Southwest 480 552 36,000  Level Moncton Center
02:15PM 51.2667 -64.8167 208° Southwest 480 552 36,000  Level Moncton Center
02:16PM 51.1333 -64.9000 201° Southwest 480 552 36,000  Level Moncton Center
02:17PM 51.0333 -65.0167 216° Southwest 470 541 36,000  Level Moncton Center
02:18PM 50.9167 -65.0833 200° South 470 541 36,000  Level Moncton Center
02:24PM 50.2070 -65.6560 200° South 474 545 36,000  Level FlightAware
02:25PM 50.1390 -65.7080 206° Southwest 473 544 36,000  Level FlightAware
02:25PM 50.0680 -65.7620 206° Southwest 473 544 36,000  Level FlightAware
02:26PM 50.0190 -65.8000 206° Southwest 474 545 36,000  Level FlightAware
02:26PM 49.9330 -65.8650 206° Southwest 474 545 36,000  Level FlightAware
02:27PM 49.8190 -65.9510 206° Southwest 474 545 36,000  Level FlightAware
02:28PM 49.7460 -66.0060 206° Southwest 473 544 36,000  Level FlightAware
02:29PM 49.6690 -66.0630 206° Southwest 473 544 36,000  Level FlightAware
02:29PM 49.6020 -66.1130 206° Southwest 472 543 36,000  Level FlightAware
02:30PM 49.5370 -66.1620 206° Southwest 472 543 36,000  Level FlightAware
02:30PM 49.4680 -66.2130 206° Southwest 473 544 36,000  Level FlightAware
02:31PM 49.4040 -66.2610 206° Southwest 472 543 36,000  Level FlightAware
02:31PM 49.3310 -66.3140 205° Southwest 473 544 36,000  Level FlightAware
02:32PM 49.2540 -66.3710 206° Southwest 472 543 36,000  Level FlightAware
02:33PM 49.1900 -66.4170 205° Southwest 472 543 36,000  Level FlightAware
02:33PM 49.1220 -66.4670 206° Southwest 472 543 36,000  Level FlightAware
02:34PM 49.0530 -66.5180 206° Southwest 472 543 36,000  Level FlightAware
02:34PM 48.9880 -66.5640 205° Southwest 471 542 36,000  Level FlightAware
02:35PM 48.9150 -66.6180 206° Southwest 470 541 36,000  Level FlightAware
02:36PM 48.8490 -66.6650 205° Southwest 469 540 36,000  Level FlightAware
02:36PM 48.7810 -66.7140 205° Southwest 468 539 36,000  Level FlightAware
02:37PM 48.7060 -66.7670 205° Southwest 466 536 36,000  Level FlightAware
02:37PM 48.6420 -66.8130 205° Southwest 466 536 36,000  Level FlightAware
02:38PM 48.5790 -66.8590 206° Southwest 465 535 36,000  Level FlightAware
02:38PM 48.5060 -66.9100 205° Southwest 465 535 36,000  Level FlightAware
02:39PM 48.4400 -66.9570 205° Southwest 466 536 36,000  Level FlightAware
02:40PM 48.3630 -67.0110 205° Southwest 465 535 36,000  Level FlightAware
02:40PM 48.3000 -67.0560 205° Southwest 464 534 36,000  Level FlightAware
02:41PM 48.2280 -67.1060 205° Southwest 463 533 36,000  Level FlightAware
02:41PM 48.1700 -67.1470 205° Southwest 463 533 36,000  Level FlightAware
02:42PM 48.1010 -67.1960 205° Southwest 462 532 36,000  Level FlightAware
02:43PM 48.0290 -67.2460 205° Southwest 463 533 36,000  Level FlightAware
02:43PM 47.9650 -67.2890 204° Southwest 463 533 36,000  Level FlightAware
02:44PM 47.8940 -67.3390 205° Southwest 462 532 36,000  Level FlightAware
02:45PM 47.8010 -67.4030 205° Southwest 461 531 36,000  Level FlightAware
02:45PM 47.7310 -67.4510 205° Southwest 462 532 36,000  Level FlightAware
02:46PM 47.6670 -67.4950 205° Southwest 462 532 36,000  Level FlightAware
02:46PM 47.6130 -67.5320 205° Southwest 463 533 36,000  Level FlightAware
02:47PM 47.5711 -67.5605 205° Southwest 463 533 36,000  Level FlightAware ADS-B (CYSG)
02:47PM 47.5008 -67.6083 205° Southwest 462 532 36,000  Level FlightAware ADS-B (CYSG)
02:48PM 47.4395 -67.6499 205° Southwest 462 532 36,000  Level FlightAware ADS-B (CYSG)
02:48PM 47.3420 -67.7159 205° Southwest 461 531 36,000  Level FlightAware ADS-B (CYSG)
02:49PM 47.2776 -67.7593 205° Southwest 461 531 36,000  Level FlightAware ADS-B (CYSG)
02:50PM 47.2038 -67.8089 205° Southwest 460 529 36,000  Level FlightAware ADS-B (CYSG)
02:50PM 47.1436 -67.8493 205° Southwest 461 531 36,000  Level FlightAware ADS-B (CYSG)
02:51PM 47.0800 -67.8920 205° Southwest 460 529 36,000  Level FlightAware
02:51PM 47.0615 -67.9042 204° Southwest 461 531 36,000  Level FlightAware ADS-B (CYSG)
02:51PM 46.9993 -67.9456 204° Southwest 461 531 36,000  Level FlightAware ADS-B (CYSG)
02:52PM 46.8914 -68.0173 204° Southwest 461 531 36,000  Level FlightAware ADS-B (CYSG)
02:53PM 46.8154 -68.0676 204° Southwest 461 531 36,000  Level FlightAware ADS-B (CYSG)
02:54PM 46.7451 -68.1053 200° South 468 539 36,000  Level FlightAware ADS-B (CYSG)
02:54PM 46.6704 -68.1358 196° South 468 539 36,000  Level FlightAware ADS-B (CYSG)
02:55PM 46.6016 -68.1661 197° South 468 539 36,000  Level FlightAware ADS-B (CYSG)
02:55PM 46.5115 -68.2040 196° South 469 540 36,000  Level FlightAware ADS-B (CYSG)
02:56PM 46.4432 -68.2323 196° South 469 540 36,000  Level FlightAware ADS-B (CYSG)
02:57PM 46.3658 -68.2642 196° South 470 541 36,000  Level FlightAware ADS-B (CYSG)
02:57PM 46.2914 -68.2947 196° South 470 541 36,000  Level FlightAware ADS-B (CYSG)
02:58PM 46.2095 -68.3283 196° South 470 541 36,000  Level FlightAware ADS-B (CYSG)
02:58PM 46.1404 -68.3566 196° South 470 541 36,000  Level FlightAware ADS-B (CYSG)
02:59PM 46.0763 -68.3827 196° South 469 540 36,000  Level FlightAware ADS-B (CYSG)
03:00PM 45.9904 -68.4176 196° South 467 537 36,000  Level FlightAware ADS-B (CYSG)
03:00PM 45.9254 -68.4439 196° South 466 536 36,000  Level FlightAware ADS-B (CYSG)
03:01PM 45.8395 -68.4787 196° South 468 539 36,000  Level FlightAware ADS-B (CYSG)
03:01PM 45.7797 -68.5028 196° South 468 539 36,000  Level FlightAware ADS-B (CYSG)
03:02PM 45.7170 -68.5280 196° South 468 539 36,000  Level FlightAware
03:02PM 45.6837 -68.5414 196° South 469 540 36,000  Level FlightAware ADS-B (CYSG)
03:03PM 45.6200 -68.5669 196° South 470 541 36,000  Level FlightAware ADS-B (CYSG)
03:03PM 45.5295 -68.6031 196° South 471 542 36,000  Level FlightAware ADS-B (CYSG)
03:04PM 45.4513 -68.6343 196° South 471 542 36,000  Level FlightAware ADS-B (CYSG)
03:05PM 45.3811 -68.6622 196° South 471 542 36,000  Level FlightAware ADS-B (CYSG)
03:05PM 45.3081 -68.6911 196° South 471 542 36,000  Level FlightAware ADS-B (CYSG)
03:06PM 45.2258 -68.7235 196° South 470 541 36,000  Level FlightAware ADS-B (CYSG)
03:06PM 45.1655 -68.7473 196° South 470 541 36,000  Level FlightAware ADS-B (CYSG)
03:07PM 45.1067 -68.7705 196° South 470 541 36,000  Level FlightAware ADS-B (CYSG)
03:07PM 45.0358 -68.7983 196° South 469 540 36,000  Level FlightAware ADS-B (CYQI)
03:08PM 44.9655 -68.8258 195° South 468 539 36,000  Level FlightAware ADS-B (CYSG)
03:08PM 44.8948 -68.8534 195° South 467 537 36,000  Level FlightAware ADS-B (CYSG)
03:09PM 44.8662 -68.8653 196° South 466 536 36,000  Level FlightAware ADS-B (CYQI)
03:09PM 44.8282 -68.8842 199° South 464 534 36,000  Level FlightAware ADS-B (KBGR)
03:09PM 44.7733 -68.9189 204° Southwest 462 532 36,000  Level FlightAware ADS-B (KBGR)
03:10PM 44.7127 -68.9615 207° Southwest 462 532 36,000  Level FlightAware ADS-B (KBGR)
03:10PM 44.7054 -68.9667 207° Southwest 462 532 36,000  Level FlightAware ADS-B (CYQI)
03:11PM 44.6151 -69.0289 206° Southwest 462 532 36,000  Level FlightAware ADS-B (KBGR)
03:11PM 44.5560 -69.0690 206° Southwest 462 532 36,000  Level FlightAware ADS-B (CYQI)
03:12PM 44.4969 -69.1090 206° Southwest 463 533 36,000  Level FlightAware ADS-B (CYQI)
03:12PM 44.4263 -69.1567 206° Southwest 462 532 36,000  Level FlightAware ADS-B (KBGR)
03:13PM 44.3669 -69.1966 206° Southwest 461 531 36,000  Level FlightAware ADS-B (KBGR)
03:13PM 44.3120 -69.2335 206° Southwest 461 531 36,000  Level FlightAware ADS-B (CYQI)
03:14PM 44.2503 -69.2749 206° Southwest 461 531 36,000  Level FlightAware ADS-B (KBGR)
03:15PM 44.2016 -69.3074 206° Southwest 460 529 36,000  Level FlightAware ADS-B (CYQI)
03:15PM 44.1160 -69.3650 206° Southwest 459 528 36,000  Level FlightAware
03:15PM 44.0923 -69.3806 205° Southwest 459 528 36,000  Level FlightAware ADS-B (CYQI)
03:16PM 44.0368 -69.4175 206° Southwest 458 527 36,000  Level FlightAware ADS-B (CYQI)
03:16PM 43.9742 -69.4591 206° Southwest 458 527 36,000  Level FlightAware ADS-B (CYQI)
03:17PM 43.9156 -69.4979 206° Southwest 457 526 36,000  Level FlightAware ADS-B (CYQI)
03:18PM 43.8360 -69.5500 205° Southwest 454 522 36,000  Level FlightAware
03:18PM 43.8197 -69.5613 207° Southwest 453 521 36,000  Level FlightAware ADS-B (CYQI)
03:18PM 43.7483 -69.6082 205° Southwest 453 521 36,000  Level FlightAware ADS-B (CYQI)
03:19PM 43.6987 -69.6407 205° Southwest 454 522 36,000  Level FlightAware ADS-B (CYQI)
03:19PM 43.6207 -69.6919 205° Southwest 455 524 36,000  Level FlightAware ADS-B (CYQI)
03:20PM 43.5603 -69.7313 205° Southwest 455 524 36,000  Level FlightAware ADS-B (CYQI)
03:21PM 43.4873 -69.7789 205° Southwest 455 524 36,000  Level FlightAware ADS-B (CYQI)
03:21PM 43.4274 -69.8119 202° Southwest 455 524 36,000  Level FlightAware ADS-B (CYQI)
03:22PM 43.3579 -69.8370 195° South 457 526 36,000  Level FlightAware ADS-B (CYQI)
03:22PM 43.2923 -69.8508 189° South 458 527 36,000  Level FlightAware ADS-B (CYQI)
03:23PM 43.2099 -69.8644 187° South 457 526 36,000  Level FlightAware ADS-B (CYQI)
03:24PM 43.1230 -69.8785 187° South 458 527 36,000  Level FlightAware ADS-B (CYQI)
03:24PM 43.0613 -69.8877 186° South 456 525 36,000  Level FlightAware ADS-B (CYQI)
03:25PM 42.9410 -69.9050 186° South 454 522 36,000  Level FlightAware
03:26PM 42.8630 -69.9160 186° South 455 524 36,000  Level FlightAware
03:26PM 42.8937 -69.9121 North 456 525 36,000  Level FlightAware ADS-B (CYQI)
03:27PM 42.7200 -69.9372 186° South 459 528 36,000  Level FlightAware ADS-B (CYQI)
03:27PM 42.6450 -69.9480 186° South 460 529 36,000  Level FlightAware
03:27PM 42.6397 -69.9487 186° South 462 532 36,000  Level FlightAware ADS-B (CYQI)
03:28PM 42.5680 -69.9590 186° South 461 531 36,000  Level FlightAware
03:28PM 42.5311 -69.9644 186° South 462 532 36,000  Level FlightAware ADS-B (CYQI)
03:29PM 42.4250 -69.9800 186° South 461 531 36,000  Level FlightAware
03:30PM 42.3520 -69.9900 186° South 461 531 36,000  Level FlightAware
03:30PM 42.2710 -70.0020 186° South 462 532 36,000  Level FlightAware
03:31PM 42.2000 -70.0130 187° South 462 532 36,000  Level FlightAware
03:31PM 42.1240 -70.0380 194° South 462 532 36,000  Level FlightAware
03:32PM 42.0570 -70.0730 201° Southwest 460 529 36,000  Level FlightAware
03:33PM 41.9950 -70.1180 208° Southwest 458 527 36,000  Level FlightAware
03:33PM 41.9310 -70.1780 215° Southwest 455 524 36,000  Level FlightAware
03:34PM 41.8780 -70.2430 222° Southwest 455 524 36,000  Level FlightAware
03:34PM 41.8270 -70.3170 227° Southwest 455 524 36,000  Level FlightAware
03:35PM 41.7790 -70.3870 227° Southwest 455 524 36,000  Level FlightAware
03:36PM 41.7290 -70.4590 227° Southwest 453 521 36,000  Level FlightAware
03:36PM 41.6770 -70.5350 228° Southwest 452 520 36,000  Level FlightAware
03:37PM 41.6280 -70.6050 227° Southwest 451 519 36,000  Level FlightAware
03:37PM 41.5820 -70.6730 228° Southwest 452 520 36,000  Level FlightAware
03:38PM 41.5300 -70.7480 227° Southwest 453 521 36,000  Level FlightAware
03:38PM 41.4800 -70.8190 227° Southwest 453 521 36,000  Level FlightAware
03:39PM 41.4280 -70.8940 227° Southwest 453 521 36,000  Level FlightAware
03:40PM 41.3810 -70.9610 227° Southwest 454 522 36,000  Level FlightAware
03:40PM 41.3310 -71.0320 227° Southwest 453 521 36,000  Level FlightAware
03:41PM 41.2840 -71.1080 231° Southwest 452 520 36,000  Level FlightAware
03:41PM 41.2450 -71.1910 238° Southwest 453 521 36,000  Level FlightAware
03:42PM 41.2140 -71.2830 246° West 453 521 36,000  Level FlightAware
03:43PM 41.1870 -71.3790 250° West 456 525 36,000  Level FlightAware
03:43PM 41.1640 -71.4630 250° West 456 525 36,000  Level FlightAware
03:44PM 41.1414 -71.5422 249° West 458 527 36,000  Level FlightAware ADS-B (KSNC)
03:44PM 41.1100 -71.6520 249° West 460 529 36,000  Level FlightAware
03:45PM 41.0845 -71.7428 250° West 463 533 36,000  Level FlightAware ADS-B (KSNC)
03:45PM 41.0682 -71.7999 249° West 465 535 36,000  Level FlightAware ADS-B (KSNC)
03:46PM 41.0330 -71.9220 249° West 464 534 36,000  Level FlightAware
03:46PM 41.0224 -71.9593 249° West 464 534 36,000  Level FlightAware ADS-B (KSNC)
03:47PM 40.9924 -72.0638 249° West 468 539 36,000  Level FlightAware ADS-B (KSNC)
03:48PM 40.9582 -72.1767 248° West 470 541 36,000  Level FlightAware ADS-B (KSNC)
03:48PM 40.9253 -72.2556 241° Southwest 474 545 36,000  Level FlightAware ADS-B (KSNC)
03:49PM 40.8770 -72.3448 234° Southwest 479 551 36,000  Level FlightAware ADS-B (KSNC)
03:49PM 40.8295 -72.4133 227° Southwest 479 551 36,000  Level FlightAware ADS-B (KSNC)
03:50PM 40.7801 -72.4714 222° Southwest 481 554 36,000  Level FlightAware ADS-B (KSNC)
03:50PM 40.7156 -72.5477 222° Southwest 481 554 36,000  Level FlightAware ADS-B (KSNC)
03:51PM 40.6507 -72.6281 223° Southwest 481 554 36,000  Level FlightAware ADS-B (KSNC)
03:52PM 40.5919 -72.6958 221° Southwest 481 554 36,000  Level FlightAware ADS-B (KSNC)
03:52PM 40.5342 -72.7615 221° Southwest 481 554 36,000  Level FlightAware ADS-B (KSNC)
03:53PM 40.4846 -72.8181 221° Southwest 480 552 36,000  Level FlightAware ADS-B (KSNC)
03:53PM 40.4278 -72.8828 221° Southwest 480 552 36,000  Level FlightAware ADS-B (KSNC)
03:54PM 40.3767 -72.9410 221° Southwest 480 552 36,000  Level FlightAware ADS-B (KSNC)
03:55PM 40.3040 -73.0236 221° Southwest 479 551 36,000  Level FlightAware ADS-B (KSNC)
03:55PM 40.2526 -73.0820 221° Southwest 479 551 36,000  Level FlightAware ADS-B (KSNC)
03:56PM 40.1864 -73.1569 221° Southwest 476 548 36,000  Level FlightAware ADS-B (KSNC)
03:56PM 40.1225 -73.2290 221° Southwest 476 548 36,000  Level FlightAware ADS-B (KSNC)
03:57PM 40.0887 -73.2670 221° Southwest 475 547 36,000  Level FlightAware ADS-B (KSNC)
03:57PM 40.0231 -73.3407 221° Southwest 475 547 36,000  Level FlightAware ADS-B (KSNC)
03:59PM 39.9090 -73.4680 221° Southwest 477 549 36,000  Level FlightAware
03:59PM 39.8893 -73.4902 221° Southwest 479 551 36,000  Level FlightAware ADS-B (KSNC)
04:00PM 39.7920 -73.5990 221° Southwest 481 554 36,000  Level FlightAware
04:00PM 39.7776 -73.6147 220° Southwest 482 555 36,000  Level FlightAware ADS-B (KSNC)
04:00PM 39.7094 -73.6904 221° Southwest 482 555 36,000  Level FlightAware ADS-B (KSNC)
04:01PM 39.6352 -73.7725 220° Southwest 482 555 36,000  Level FlightAware ADS-B (KSNC)
04:02PM 39.5560 -73.8600 220° Southwest 482 555 36,000  Level FlightAware
04:02PM 39.5134 -73.9067 220° Southwest 476 548 36,000  Level FlightAware ADS-B (KOQN)
04:03PM 39.4330 -73.9930 220° Southwest 485 558 36,000  Level FlightAware
04:04PM 39.3680 -74.0500 214° Southwest 488 562 36,000  Level FlightAware
04:04PM 39.3030 -74.1010 211° Southwest 490 564 36,000  Level FlightAware
04:05PM 39.2190 -74.1690 212° Southwest 491 565 36,000  Level FlightAware
04:06PM 39.1530 -74.2230 212° Southwest 484 557 36,000  Level FlightAware
04:06PM 39.0740 -74.2880 213° Southwest 483 556 36,000  Level FlightAware
04:07PM 39.0090 -74.3410 212° Southwest 482 555 36,000  Level FlightAware
04:08PM 38.9390 -74.3980 212° Southwest 481 554 36,000  Level FlightAware
04:08PM 38.8740 -74.4500 212° Southwest 481 554 36,000  Level FlightAware
04:09PM 38.8070 -74.5050 213° Southwest 480 552 36,000  Level FlightAware
04:09PM 38.7400 -74.5590 212° Southwest 479 551 36,000  Level FlightAware
04:10PM 38.6670 -74.6180 212° Southwest 478 550 36,000  Level FlightAware
04:11PM 38.5970 -74.6750 212° Southwest 478 550 36,000  Level FlightAware
04:11PM 38.5230 -74.7340 212° Southwest 479 551 36,000  Level FlightAware
04:12PM 38.4650 -74.7810 212° Southwest 479 551 36,000  Level FlightAware
04:12PM 38.3980 -74.8340 212° Southwest 479 551 36,000  Level FlightAware
04:13PM 38.3320 -74.8870 212° Southwest 478 550 36,000  Level FlightAware
04:13PM 38.2650 -74.9410 212° Southwest 479 551 36,000  Level FlightAware
04:14PM 38.1910 -74.9990 212° Southwest 481 554 36,000  Level FlightAware
04:15PM 38.1330 -75.0460 213° Southwest 489 563 36,000  Level FlightAware
04:15PM 38.0640 -75.1000 212° Southwest 491 565 36,000  Level FlightAware
04:16PM 37.9850 -75.1630 212° Southwest 496 571 36,000  Level FlightAware
04:16PM 37.9220 -75.2120 212° Southwest 497 572 36,000  Level FlightAware
04:17PM 37.8590 -75.2630 213° Southwest 488 562 36,000  Level FlightAware
04:18PM 37.8020 -75.3220 219° Southwest 480 552 36,000  Level FlightAware
04:18PM 37.7420 -75.3870 221° Southwest 485 558 36,000  Level FlightAware
04:19PM 37.6720 -75.4640 221° Southwest 487 560 36,000  Level FlightAware
04:19PM 37.6210 -75.5190 221° Southwest 476 548 36,000  Level FlightAware
04:20PM 37.5650 -75.5800 221° Southwest 474 545 36,000  Level FlightAware
04:20PM 37.5270 -75.6150 216° Southwest 486 559 36,000  Level FlightAware
04:21PM 37.4660 -75.6550 207° Southwest 484 557 36,000  Level FlightAware
04:21PM 37.3820 -75.7220 212° Southwest 474 545 36,000  Level FlightAware
04:22PM 37.3030 -75.7820 211° Southwest 485 558 36,000  Level FlightAware
04:23PM 37.2370 -75.8310 211° Southwest 486 559 36,000  Level FlightAware
04:23PM 37.1510 -75.8940 210° Southwest 485 558 36,000  Level FlightAware
04:24PM 37.0820 -75.9450 211° Southwest 485 558 36,000  Level FlightAware
04:25PM 37.0250 -75.9870 210° Southwest 484 557 36,000  Level FlightAware
04:25PM 36.9580 -76.0360 210° Southwest 485 558 36,000  Level FlightAware
04:26PM 36.8810 -76.0930 211° Southwest 482 555 36,000  Level FlightAware
04:27PM 36.7820 -76.1650 210° Southwest 473 544 36,000  Level FlightAware
04:27PM 36.7220 -76.2080 210° Southwest 473 544 36,000  Level FlightAware
04:28PM 36.6670 -76.2470 210° Southwest 473 544 36,000  Level FlightAware
04:29PM 36.6080 -76.2900 210° Southwest 473 544 36,000  Level FlightAware
04:29PM 36.5500 -76.3320 210° Southwest 473 544 36,000  Level FlightAware
04:30PM 36.4340 -76.4170 211° Southwest 485 558 36,000  Level FlightAware
04:30PM 36.3730 -76.4610 210° Southwest 485 558 36,000  Level FlightAware
04:31PM 36.2910 -76.5200 210° Southwest 488 562 36,000  Level FlightAware
04:32PM 36.2040 -76.5820 210° Southwest 488 562 36,000  Level FlightAware
04:32PM 36.1280 -76.6370 210° Southwest 492 566 36,000  Level FlightAware
04:33PM 36.0710 -76.6780 210° Southwest 492 566 36,000  Level FlightAware
04:33PM 36.0020 -76.7270 210° Southwest 493 567 36,000  Level FlightAware
04:34PM 35.9040 -76.7970 210° Southwest 493 567 36,000  Level FlightAware
04:35PM 35.9030 -76.7980 219° Southwest 492 566 36,000  Level FlightAware
04:36PM 35.9010 -76.7990 202° Southwest 493 567 36,000  Level FlightAware
04:36PM 35.8390 -76.8430 210° Southwest 493 567 36,000  Level FlightAware
04:37PM 35.7770 -76.8870 210° Southwest 493 567 36,000  Level FlightAware
04:38PM 35.7180 -76.9290 210° Southwest 493 567 36,000  Level FlightAware
04:38PM 35.4580 -77.1110 210° Southwest 482 555 36,000  Level FlightAware
04:39PM 35.3880 -77.1600 210° Southwest 482 555 36,000  Level FlightAware
04:39PM 35.3290 -77.2020 210° Southwest 482 555 36,000  Level FlightAware
04:40PM 35.2670 -77.2460 210° Southwest 482 555 36,000  Level FlightAware
04:41PM 35.1525 -77.3243 209° Southwest 479 551 36,000  Level FlightAware ADS-B
04:41PM 35.0756 -77.3777 210° Southwest 483 556 36,000  Level FlightAware ADS-B
04:42PM 35.0089 -77.4240 210° Southwest 483 556 36,000  Level FlightAware ADS-B
04:42PM 34.9411 -77.4708 210° Southwest 485 558 36,000  Level FlightAware ADS-B
04:43PM 34.8799 -77.5130 209° Southwest 485 558 36,000 60 Level FlightAware ADS-B
04:43PM 34.8229 -77.5523 210° Southwest 488 562 36,100 300 Climbing FlightAware ADS-B
04:44PM 34.7643 -77.5926 209° Southwest 499 574 36,300 600 Climbing FlightAware ADS-B
04:44PM 34.7038 -77.6343 209° Southwest 505 581 36,700 900 Climbing FlightAware ADS-B
04:45PM 34.6413 -77.6770 209° Southwest 506 582 37,200 900 Climbing FlightAware ADS-B
04:45PM 34.5778 -77.7204 209° Southwest 510 587 37,600 660 Climbing FlightAware ADS-B
04:46PM 34.5009 -77.7729 209° Southwest 506 582 38,000 300 Climbing FlightAware ADS-B
04:47PM 34.4377 -77.8159 209° Southwest 507 583 38,000  Level FlightAware ADS-B
04:48PM 34.3430 -77.8670 204° Southwest 519 597 38,000  Level FlightAware
04:48PM 34.2599 -77.8977 197° South 523 602 38,000  Level FlightAware ADS-B
04:48PM 34.1933 -77.9176 194° South 522 601 38,000  Level FlightAware ADS-B
04:49PM 34.1177 -77.9416 195° South 520 598 38,000  Level FlightAware ADS-B
04:50PM 34.0295 -77.9680 194° South 520 598 38,000  Level FlightAware ADS-B
04:50PM 33.9240 -77.9990 194° South 519 597 38,000  Level FlightAware
04:51PM 33.8470 -78.0210 193° South 519 597 38,000  Level FlightAware
04:52PM 33.7660 -78.0440 193° South 520 598 38,000  Level FlightAware
04:52PM 33.6860 -78.0670 193° South 520 598 38,000  Level FlightAware
04:53PM 33.6070 -78.0900 194° South 521 600 38,000  Level FlightAware
04:53PM 33.5230 -78.1140 193° South 522 601 38,000  Level FlightAware
04:54PM 33.4530 -78.1340 193° South 523 602 38,000  Level FlightAware
04:55PM 33.3590 -78.1610 193° South 523 602 38,000  Level FlightAware
04:55PM 33.2780 -78.1840 193° South 523 602 38,000  Level FlightAware
04:56PM 33.1950 -78.2070 193° South 523 602 38,000  Level FlightAware
04:56PM 33.1170 -78.2290 193° South 523 602 38,000  Level FlightAware
04:57PM 33.0270 -78.2550 194° South 524 603 38,000  Level FlightAware
04:57PM 32.9370 -78.2800 193° South 524 603 38,000  Level FlightAware
04:58PM 32.8550 -78.3030 193° South 523 602 38,000  Level FlightAware
04:59PM 32.7820 -78.3240 194° South 522 601 38,000  Level FlightAware
04:59PM 32.7020 -78.3460 193° South 521 600 38,000  Level FlightAware
05:00PM 32.5650 -78.3850 193° South 522 601 38,000  Level FlightAware
05:01PM 32.4270 -78.4230 193° South 522 601 38,000  Level FlightAware
05:01PM 32.3660 -78.4410 194° South 521 600 38,000  Level FlightAware
05:02PM 32.2890 -78.4640 194° South 521 600 38,000  Level FlightAware
05:03PM 32.2210 -78.4840 194° South 521 600 38,000  Level FlightAware
05:03PM 32.1500 -78.5050 194° South 521 600 38,000  Level FlightAware
05:04PM 32.0780 -78.5260 194° South 521 600 38,000  Level FlightAware
05:04PM 32.0070 -78.5470 194° South 521 600 38,000  Level FlightAware
05:05PM 31.8510 -78.5900 193° South 517 595 38,000  Level FlightAware
05:06PM 31.7790 -78.6100 193° South 517 595 38,000  Level FlightAware
05:06PM 31.6600 -78.6440 194° South 518 596 38,000  Level FlightAware
05:07PM 31.5890 -78.6640 193° South 518 596 38,000  Level FlightAware
05:08PM 31.5150 -78.6840 193° South 518 596 38,000  Level FlightAware
05:08PM 31.4440 -78.7030 193° South 518 596 38,000  Level FlightAware
05:09PM 31.3720 -78.7220 193° South 518 596 38,000  Level FlightAware
05:09PM 31.3010 -78.7420 194° South 518 596 38,000  Level FlightAware
05:10PM 31.2210 -78.7630 193° South 518 596 38,000  Level FlightAware
05:11PM 31.1500 -78.7820 193° South 518 596 38,000  Level FlightAware
05:11PM 31.0570 -78.8070 193° South 518 596 38,000  Level FlightAware
05:12PM 30.9850 -78.8270 193° South 518 596 38,000  Level FlightAware
05:13PM 30.9120 -78.8460 193° South 518 596 38,000  Level FlightAware
05:13PM 30.8400 -78.8660 193° South 518 596 38,000  Level FlightAware
05:14PM 30.7690 -78.8850 193° South 518 596 38,000  Level FlightAware
05:14PM 30.6970 -78.9040 193° South 518 596 38,000  Level FlightAware
05:15PM 30.6240 -78.9240 193° South 518 596 38,000  Level FlightAware
05:16PM 30.5520 -78.9430 193° South 518 596 38,000  Level FlightAware
05:17PM 30.2489 -79.0456 193° South 525 604 38,000  Level Miami Center
05:18PM 30.1169 -79.0981 199° South 525 604 38,000  Level Miami Center
05:19PM 29.9825 -79.1550 200° South 525 604 38,000  Level Miami Center
05:20PM 29.8442 -79.2072 198° South 520 598 38,000  Level Miami Center
05:21PM 29.7117 -79.2639 200° South 514 592 38,000  Level Miami Center
05:26PM 28.9030 -79.5660 200° South 513 590 38,000  Level FlightAware
05:27PM 28.8240 -79.5950 198° South 513 590 38,000  Level FlightAware
05:27PM 28.7500 -79.6240 199° South 521 600 38,000  Level FlightAware
05:28PM 28.6580 -79.6580 198° South 523 602 38,000  Level FlightAware
05:29PM 28.5600 -79.6950 198° South 524 603 38,000  Level FlightAware
05:30PM 28.4660 -79.7300 198° South 524 603 38,000  Level FlightAware
05:30PM 28.3630 -79.7700 199° South 521 600 38,000  Level FlightAware
05:31PM 28.2760 -79.8020 198° South 521 600 38,000  Level FlightAware
05:31PM 28.1980 -79.8310 198° South 522 601 38,000  Level FlightAware
05:32PM 28.1210 -79.8600 198° South 522 601 38,000  Level FlightAware
05:33PM 28.0400 -79.8910 199° South 522 601 38,000  Level FlightAware
05:33PM 27.9620 -79.9200 198° South 522 601 38,000  Level FlightAware
05:34PM 27.8800 -79.9500 198° South 522 601 38,000  Level FlightAware
05:34PM 27.7970 -79.9810 198° South 522 601 38,000  Level FlightAware
05:35PM 27.6750 -80.0260 198° South 523 602 38,000  Level FlightAware
05:36PM 27.5740 -80.0640 198° South 522 601 38,000  Level FlightAware
05:37PM 27.4890 -80.0950 198° South 521 600 38,000  Level FlightAware
05:37PM 27.4210 -80.1200 198° South 523 602 38,000  Level FlightAware
05:38PM 27.3430 -80.1490 198° South 524 603 38,000  Level FlightAware
05:38PM 27.2460 -80.1850 198° South 525 604 38,000  Level FlightAware
05:39PM 27.1670 -80.2140 198° South 526 605 38,000  Level FlightAware
05:39PM 27.0960 -80.2400 198° South 526 605 38,000  Level FlightAware
05:40PM 27.0050 -80.2730 198° South 524 603 38,000  Level FlightAware
05:41PM 26.9260 -80.3020 198° South 525 604 38,000  Level FlightAware
05:41PM 26.8460 -80.3310 198° South 524 603 38,000  Level FlightAware
05:42PM 26.7660 -80.3600 198° South 524 603 38,000  Level FlightAware
05:42PM 26.6860 -80.3900 199° South 524 603 38,000  Level FlightAware
05:43PM 26.6510 -80.4070 203° Southwest 516 594 38,000  Level FlightAware
05:43PM 26.5970 -80.4510 216° Southwest 510 587 38,000  Level FlightAware
05:44PM 26.5090 -80.5220 216° Southwest 512 589 38,000  Level FlightAware
05:44PM 26.4410 -80.5780 216° Southwest 513 590 38,000  Level FlightAware
05:45PM 26.3740 -80.6320 216° Southwest 513 590 38,000  Level FlightAware
05:46PM 26.3060 -80.6880 216° Southwest 505 581 38,000  Level FlightAware
05:46PM 26.2490 -80.7340 216° Southwest 505 581 38,000  Level FlightAware
05:47PM 26.1710 -80.7980 216° Southwest 514 592 38,000  Level FlightAware
05:47PM 26.1060 -80.8510 216° Southwest 499 574 38,000  Level FlightAware
05:48PM 26.0380 -80.9050 216° Southwest 498 573 38,000  Level FlightAware
05:49PM 25.9740 -80.9580 217° Southwest 497 572 38,000  Level FlightAware
05:49PM 25.9170 -81.0040 216° Southwest 502 578 38,000  Level FlightAware
05:50PM 25.8390 -81.0670 216° Southwest 501 577 38,000  Level FlightAware
05:50PM 25.7820 -81.1120 215° Southwest 501 577 38,000  Level FlightAware
05:51PM 25.7160 -81.1650 216° Southwest 500 575 38,000  Level FlightAware
05:52PM 25.6430 -81.2240 216° Southwest 500 575 38,000  Level FlightAware
05:52PM 25.5750 -81.2780 216° Southwest 501 577 38,000  Level FlightAware
05:53PM 25.5100 -81.3300 216° Southwest 496 571 38,000  Level FlightAware
05:53PM 25.4340 -81.3910 216° Southwest 497 572 38,000  Level FlightAware
05:54PM 25.3680 -81.4440 216° Southwest 497 572 38,000  Level FlightAware
05:55PM 25.3000 -81.4980 216° Southwest 497 572 38,000  Level FlightAware
05:55PM 25.2360 -81.5490 216° Southwest 496 571 38,000  Level FlightAware
05:56PM 25.1720 -81.5990 215° Southwest 495 570 38,000 -240 Level FlightAware
05:56PM 25.0940 -81.6620 216° Southwest 496 571 37,700 -720 Descending FlightAware
05:57PM 25.0270 -81.7140 215° Southwest 495 570 37,100 -1,080 Descending FlightAware
05:58PM 24.9640 -81.7640 216° Southwest 496 571 36,500 -960 Descending FlightAware
05:58PM 24.8950 -81.8190 216° Southwest 495 570 36,000 -960 Descending FlightAware
05:59PM 24.8280 -81.8720 216° Southwest 497 572 35,400 -1,380 Descending FlightAware
05:59PM 24.7530 -81.9310 216° Southwest 499 574 34,300 -1,680 Descending FlightAware
06:00PM 24.6970 -81.9750 216° Southwest 497 572 33,500 -1,680 Descending FlightAware
06:00PM 24.6370 -82.0220 215° Southwest 483 556 32,500 -1,740 Descending FlightAware
06:01PM 24.5620 -82.0810 216° Southwest 480 552 31,400 -1,800 Descending FlightAware
06:02PM 24.5030 -82.1270 215° Southwest 472 543 30,400 -1,740 Descending FlightAware
06:02PM 24.4370 -82.1780 215° Southwest 458 527 29,400 -1,800 Descending FlightAware
06:03PM 24.3860 -82.2190 216° Southwest 457 526 28,500 -1,800 Descending FlightAware
06:03PM 24.3140 -82.2740 215° Southwest 451 519 27,300 -1,620 Descending FlightAware
06:04PM 24.2770 -82.3040 216° Southwest 441 507 26,700 -1,080 Descending FlightAware
06:05PM 24.1960 -82.3670 215° Southwest 437 503 26,000 -540 Descending FlightAware
06:05PM 24.1460 -82.4070 216° Southwest 437 503 26,000  Level FlightAware
06:06PM 24.0960 -82.4470 216° Southwest 437 503 26,000  Level FlightAware
06:06PM 24.0460 -82.4870 216° Southwest 437 503 26,000  Level FlightAware
06:07PM 23.9960 -82.5270 216° Southwest 437 503 26,000  Level FlightAware
06:08PM 23.9460 -82.5660 215° Southwest 437 503 26,000  Level FlightAware
06:13PM 23.3463 -82.4674 171° South  Level Estimated
06:14PM 23.2225 -82.4472 171° South  Level Estimated
06:15PM 23.0987 -82.4269 171° South  Level Estimated
06:16PM 22.9891 -82.4091 171° South  Level Estimated
06:17PM 22.9891 -82.4091 51° Northeast  Level Estimated
06:18PM 22.9891 -82.4091 51° Northeast  Level Estimated
06:19PM 22.9891 -82.4091 51° Northeast  Level Estimated
06:20PM 22.9891 -82.4091 51° Northeast  Level Estimated
06:21PM 22.9891 -82.4091 51° Northeast  Level Estimated
06:22PM 22.9891 -82.4091 51° Northeast  Level Estimated
06:23PM 22.9891 -82.4091 51° Northeast  Level Estimated
06:24PM 22.9891 -82.4091 51° Northeast  Level Estimated
06:25PM 22.9891 -82.4091 51° Northeast  Level Estimated
06:26PM 22.9891 -82.4091 51° Northeast  Level Estimated
06:27PM 22.9891 -82.4091 51° Northeast  Level Estimated
06:28PM 22.9891 -82.4091 51° Northeast  Level Estimated
06:29PM 22.9891 -82.4091 51° Northeast  Level Estimated
06:30PM 22.9891 -82.4091 51° Northeast  Level Estimated
06:31PM 22.9891 -82.4091 51° Northeast  Level Estimated
06:32PM 22.9891 -82.4091 51° Northeast  Level Estimated
06:33PM 22.9891 -82.4091 51° Northeast  Level Estimated
06:34PM 22.9891 -82.4091 51° Northeast  Level Estimated
06:35PM 22.9891 -82.4091 51° Northeast  Level Estimated